Bridgeport, California
Current Conditions -  °F | °C
As of 7:52 PM on Saturday 22 Nov 2014 (Local Time) from KBAN Reporting Station
Clear Clear  
Wind Chill: 33°   Ceiling: Unl
Heat Index: 38°   Visibility: NA
Dew Point: 23°   Wind: 7mph
Humidity: 55%   Direction: 260°W
Pressure: 30.12"   Gusts: NA
Location:  38.26°N, 119.23°W
Report Text: KBAN 230352Z AUTO 26006KT CLR 03/M05 A3012 RMK AO2 SLP176 T00331050 $
Loading
Personal Weather Stations






























Interactive Weather Map New forecast layout! Learn more

10-Day Weather Forecast

Advertisements
Track Severe Weather on mobile